Time;durP1;ratioP1;P1;durP2;ratioP2;P2;SDS_P1;SDS_P2;PMS_P1;PMS_P2;Temp;Humidity;BMP_temperature;BMP_pressure;BME280_temperature;BME280_humidity;BME280_pressure;Samples;Min_cycle;Max_cycle;Signal;HPM_P1;HPM_P2
2023/06/08 00:00:50;;;;;;;5.68;4.03;;;22.10;54.40;;;;;;5073206;28;20648;-70
2023/06/08 00:03:18;;;;;;;4.75;3.50;;;22.10;54.40;;;;;;5073135;28;20179;-71
2023/06/08 00:05:49;;;;;;;4.63;3.45;;;22.10;54.40;;;;;;5072711;28;20181;-71
2023/06/08 00:08:15;;;;;;;4.03;3.50;;;22.10;54.40;;;;;;5072940;28;20541;-70
2023/06/08 00:10:44;;;;;;;5.00;3.97;;;22.10;54.40;;;;;;5073148;28;20614;-68
2023/06/08 00:13:10;;;;;;;5.13;3.60;;;22.10;54.40;;;;;;5072487;28;20182;-68
2023/06/08 00:15:35;;;;;;;4.63;3.75;;;22.00;54.40;;;;;;5073396;28;20590;-68
2023/06/08 00:18:01;;;;;;;5.53;3.92;;;22.10;54.40;;;;;;5073047;28;20302;-68
2023/06/08 00:20:27;;;;;;;3.95;3.50;;;22.10;54.40;;;;;;5071947;28;20221;-69
2023/06/08 00:22:52;;;;;;;4.15;3.75;;;22.00;54.30;;;;;;5072891;28;20166;-68
2023/06/08 00:25:18;;;;;;;6.40;4.00;;;22.00;54.30;;;;;;5072664;28;20625;-68
2023/06/08 00:27:43;;;;;;;4.82;3.97;;;22.00;54.30;;;;;;5072147;28;20656;-68
2023/06/08 00:30:10;;;;;;;4.82;3.95;;;22.10;54.40;;;;;;5072617;28;20518;-69
2023/06/08 00:32:35;;;;;;;4.00;3.60;;;22.00;54.30;;;;;;5072966;28;20213;-71
2023/06/08 00:35:01;;;;;;;5.80;3.85;;;22.00;54.40;;;;;;5072338;28;20200;-69
2023/06/08 00:37:26;;;;;;;5.05;3.70;;;22.00;54.30;;;;;;5072161;28;20175;-69
2023/06/08 00:39:52;;;;;;;3.95;3.65;;;22.00;54.40;;;;;;5072970;28;20214;-69
2023/06/08 00:42:17;;;;;;;5.18;3.75;;;22.00;54.30;;;;;;5071304;28;20637;-69
2023/06/08 00:44:43;;;;;;;4.60;3.55;;;22.00;54.30;;;;;;5072459;28;20653;-69
2023/06/08 00:47:09;;;;;;;4.00;3.60;;;22.00;54.30;;;;;;5072030;28;20512;-69
2023/06/08 00:49:34;;;;;;;5.38;3.97;;;22.00;54.30;;;;;;5071899;28;20197;-69
2023/06/08 00:52:00;;;;;;;4.30;3.75;;;22.00;54.30;;;;;;5071406;28;20181;-68
2023/06/08 00:54:30;;;;;;;5.30;4.00;;;22.00;54.40;;;;;;5071622;28;20210;-69
2023/06/08 00:57:00;;;;;;;4.63;4.22;;;22.00;54.40;;;;;;5072798;28;20174;-68
2023/06/08 00:59:29;;;;;;;4.93;3.55;;;22.00;54.30;;;;;;5072460;28;20271;-69
2023/06/08 01:01:57;;;;;;;4.88;4.28;;;22.00;54.30;;;;;;5070821;28;20604;-70
2023/06/08 01:04:23;;;;;;;4.65;3.67;;;21.90;54.30;;;;;;5072145;28;20186;-71
2023/06/08 01:06:53;;;;;;;5.00;4.07;;;22.00;54.30;;;;;;5072543;28;20257;-71
2023/06/08 01:09:19;;;;;;;4.22;3.35;;;22.00;54.30;;;;;;5071573;28;20178;-69
2023/06/08 01:12:03;;;;;;;4.85;3.70;;;22.00;54.40;;;;;;5072623;28;20170;-68
2023/06/08 01:14:30;;;;;;;5.82;4.18;;;21.90;54.30;;;;;;5072279;28;20206;-68
2023/06/08 01:17:00;;;;;;;5.18;4.00;;;21.90;54.30;;;;;;5071608;28;20178;-69
2023/06/08 01:19:48;;;;;;;6.95;4.22;;;21.90;54.30;;;;;;5070907;28;20222;-68
2023/06/08 01:22:22;;;;;;;4.78;3.90;;;21.90;54.30;;;;;;5050940;28;20269;-68
2023/06/08 01:24:49;;;;;;;4.97;3.50;;;21.90;54.30;;;;;;5070397;28;20629;-68
2023/06/08 01:27:17;;;;;;;4.05;3.65;;;21.90;54.30;;;;;;5070782;28;20249;-69
2023/06/08 01:29:44;;;;;;;4.63;3.55;;;21.90;54.30;;;;;;5070337;28;20205;-68
2023/06/08 01:32:10;;;;;;;6.47;4.28;;;21.90;54.30;;;;;;5072334;28;20235;-70
2023/06/08 01:34:35;;;;;;;3.88;3.47;;;21.90;54.30;;;;;;5072281;28;20174;-70
2023/06/08 01:37:17;;;;;;;6.78;4.13;;;21.90;54.30;;;;;;5070419;28;20187;-69
2023/06/08 01:39:43;;;;;;;4.18;3.78;;;21.90;54.30;;;;;;5071220;28;20218;-69
2023/06/08 01:42:09;;;;;;;4.63;3.60;;;21.90;54.30;;;;;;5071990;28;20175;-69
2023/06/08 01:44:37;;;;;;;4.90;3.75;;;21.90;54.30;;;;;;5070165;28;20625;-69
2023/06/08 01:47:02;;;;;;;4.53;3.83;;;21.80;54.20;;;;;;5071112;28;20251;-70
2023/06/08 01:49:28;;;;;;;4.13;3.58;;;21.80;54.20;;;;;;5070584;28;20629;-69
2023/06/08 01:51:54;;;;;;;5.43;4.05;;;21.90;54.30;;;;;;5070286;28;20517;-69
2023/06/08 01:54:21;;;;;;;7.35;4.20;;;21.80;54.20;;;;;;5072027;28;20245;-68
2023/06/08 01:56:46;;;;;;;5.53;4.47;;;21.80;54.30;;;;;;5073235;28;20524;-68
2023/06/08 01:59:12;;;;;;;5.95;4.10;;;21.80;54.30;;;;;;5074901;28;20240;-69
2023/06/08 02:01:37;;;;;;;7.28;4.25;;;21.80;54.20;;;;;;5075976;28;20574;-70
2023/06/08 02:04:03;;;;;;;4.57;4.10;;;21.80;54.30;;;;;;5075738;28;20592;-70
2023/06/08 02:06:29;;;;;;;4.82;3.90;;;21.80;54.20;;;;;;5074598;28;20596;-71
2023/06/08 02:08:54;;;;;;;5.63;4.38;;;21.80;54.20;;;;;;5075670;28;20633;-70
2023/06/08 02:11:21;;;;;;;4.15;3.75;;;21.80;54.20;;;;;;5075271;28;20197;-69
2023/06/08 02:13:47;;;;;;;6.15;4.25;;;21.80;54.30;;;;;;5074996;28;20186;-68
2023/06/08 02:16:12;;;;;;;5.00;3.63;;;21.80;54.20;;;;;;5075286;28;20171;-68
2023/06/08 02:18:41;;;;;;;4.60;3.92;;;21.80;54.30;;;;;;5075273;28;20202;-69
2023/06/08 02:21:07;;;;;;;6.05;3.85;;;21.80;54.30;;;;;;5074362;28;20215;-69
2023/06/08 02:23:33;;;;;;;5.07;3.80;;;21.70;54.20;;;;;;5075120;28;20189;-69
2023/06/08 02:25:58;;;;;;;4.63;3.60;;;21.70;54.20;;;;;;5074284;28;20174;-68
2023/06/08 02:28:24;;;;;;;5.05;4.10;;;21.80;54.30;;;;;;5074836;28;20174;-69
2023/06/08 02:30:50;;;;;;;5.68;3.90;;;21.80;54.30;;;;;;5075086;28;20622;-70
2023/06/08 02:33:15;;;;;;;5.30;4.05;;;21.80;54.30;;;;;;5074143;28;20171;-71
2023/06/08 02:35:41;;;;;;;5.32;3.70;;;21.70;54.20;;;;;;5075167;28;20697;-70
2023/06/08 02:38:06;;;;;;;3.95;3.35;;;21.80;54.20;;;;;;5074194;28;20234;-69
2023/06/08 02:40:32;;;;;;;4.95;3.80;;;21.70;54.20;;;;;;5074108;28;20257;-70
2023/06/08 02:42:58;;;;;;;5.65;4.55;;;21.70;54.20;;;;;;5075017;28;20645;-69
2023/06/08 02:45:24;;;;;;;6.78;4.05;;;21.70;54.20;;;;;;5074835;28;20179;-70
2023/06/08 02:47:50;;;;;;;5.38;4.20;;;21.70;54.20;;;;;;5074175;28;20175;-70
2023/06/08 02:50:16;;;;;;;6.07;4.05;;;21.70;54.20;;;;;;5074413;28;20551;-69
2023/06/08 02:52:41;;;;;;;5.95;4.18;;;21.70;54.20;;;;;;5074494;28;20521;-69
2023/06/08 02:55:07;;;;;;;5.93;4.30;;;21.80;54.30;;;;;;5073597;28;20182;-69
2023/06/08 02:57:32;;;;;;;5.82;4.30;;;21.70;54.20;;;;;;5074590;28;20179;-69
2023/06/08 02:59:58;;;;;;;6.82;3.95;;;21.70;54.20;;;;;;5074590;28;20206;-70
2023/06/08 03:02:24;;;;;;;4.65;4.15;;;21.70;54.20;;;;;;5073192;28;20638;-70
2023/06/08 03:04:52;;;;;;;4.50;3.88;;;21.70;54.20;;;;;;5074553;28;20265;-71
2023/06/08 03:07:18;;;;;;;4.45;3.90;;;21.70;54.20;;;;;;5074052;28;20178;-71
2023/06/08 03:09:43;;;;;;;4.90;3.95;;;21.70;54.20;;;;;;5072921;28;20201;-68
2023/06/08 03:12:12;;;;;;;7.00;3.88;;;21.70;54.20;;;;;;5074224;28;20625;-69
2023/06/08 03:14:41;;;;;;;5.80;3.97;;;21.60;54.20;;;;;;5074308;28;20178;-68
2023/06/08 03:17:07;;;;;;;5.32;4.00;;;21.60;54.20;;;;;;5073164;28;20688;-69
2023/06/08 03:19:32;;;;;;;4.68;4.03;;;21.60;54.50;;;;;;5073734;28;20619;-68
2023/06/08 03:22:02;;;;;;;5.35;4.30;;;21.60;54.20;;;;;;5073922;28;20175;-68
2023/06/08 03:24:28;;;;;;;4.32;3.60;;;21.60;54.20;;;;;;5072919;28;20698;-68
2023/06/08 03:26:55;;;;;;;4.40;3.85;;;21.60;54.20;;;;;;5073939;28;20224;-69
2023/06/08 03:29:21;;;;;;;5.18;3.95;;;21.60;54.20;;;;;;5072805;28;20174;-69
2023/06/08 03:31:47;;;;;;;4.45;3.40;;;21.60;54.20;;;;;;5073886;28;20178;-70
2023/06/08 03:34:12;;;;;;;5.07;4.22;;;21.60;54.20;;;;;;5073489;28;20310;-70
2023/06/08 03:36:38;;;;;;;5.88;4.10;;;21.60;54.20;;;;;;5073054;28;20651;-70
2023/06/08 03:39:04;;;;;;;5.40;3.65;;;21.60;54.20;;;;;;5073371;28;20279;-69
2023/06/08 03:41:30;;;;;;;5.57;3.80;;;21.60;54.20;;;;;;5073621;28;20186;-69
2023/06/08 03:43:55;;;;;;;5.70;3.90;;;21.60;54.20;;;;;;5073221;28;20167;-68
2023/06/08 03:46:22;;;;;;;5.10;3.88;;;21.60;54.30;;;;;;5073003;28;20205;-69
2023/06/08 03:48:47;;;;;;;4.57;3.90;;;21.60;54.20;;;;;;5073588;28;20181;-70
2023/06/08 03:51:13;;;;;;;4.63;3.92;;;21.60;54.20;;;;;;5072753;28;20166;-68
2023/06/08 03:53:39;;;;;;;6.30;3.95;;;21.60;54.20;;;;;;5073791;28;20174;-68
2023/06/08 03:56:05;;;;;;;5.45;3.88;;;21.60;54.30;;;;;;5073748;28;20258;-68
2023/06/08 03:58:30;;;;;;;5.13;3.95;;;21.50;54.20;;;;;;5072843;28;20347;-68
2023/06/08 04:00:59;;;;;;;4.20;3.80;;;21.50;54.20;;;;;;5073444;28;20194;-70
2023/06/08 04:03:27;;;;;;;4.32;3.92;;;21.60;54.20;;;;;;5073088;28;20247;-69
2023/06/08 04:05:52;;;;;;;4.05;3.65;;;21.50;54.20;;;;;;5072567;28;20182;-70
2023/06/08 04:08:18;;;;;;;4.78;3.97;;;21.50;54.20;;;;;;5071767;28;20181;-69
2023/06/08 04:10:47;;;;;;;4.75;3.60;;;21.50;54.10;;;;;;5073201;28;20538;-68
2023/06/08 04:13:12;;;;;;;5.68;4.15;;;21.50;54.10;;;;;;5071788;28;20178;-68
2023/06/08 04:15:38;;;;;;;4.57;3.80;;;21.60;54.10;;;;;;5072933;28;20236;-68
2023/06/08 04:18:05;;;;;;;5.43;3.85;;;21.50;54.10;;;;;;5072820;28;20202;-68
2023/06/08 04:20:33;;;;;;;5.78;4.10;;;21.50;54.10;;;;;;5070934;28;20178;-68
2023/06/08 04:22:59;;;;;;;5.53;4.07;;;21.50;54.10;;;;;;5073172;28;20174;-68
2023/06/08 04:25:25;;;;;;;4.60;4.00;;;21.50;54.00;;;;;;5071846;28;20193;-68
2023/06/08 04:27:52;;;;;;;6.18;4.22;;;21.50;54.00;;;;;;5072988;28;20170;-68
2023/06/08 04:30:17;;;;;;;5.78;4.30;;;21.50;54.10;;;;;;5072666;28;20178;-70
2023/06/08 04:32:43;;;;;;;4.50;4.07;;;21.60;54.10;;;;;;5072201;28;20486;-71
2023/06/08 04:35:09;;;;;;;5.13;4.30;;;21.60;54.10;;;;;;5072619;28;20174;-70
2023/06/08 04:37:35;;;;;;;7.18;4.50;;;21.60;54.10;;;;;;5072681;28;20219;-69
2023/06/08 04:40:01;;;;;;;4.75;3.95;;;21.60;54.00;;;;;;5071993;28;20221;-68
2023/06/08 04:42:27;;;;;;;4.78;3.75;;;21.60;54.00;;;;;;5072482;28;20193;-69
2023/06/08 04:44:53;;;;;;;5.03;4.28;;;21.60;54.00;;;;;;5072686;28;20637;-69
2023/06/08 04:47:19;;;;;;;5.53;4.30;;;21.60;54.00;;;;;;5071719;28;20204;-70
2023/06/08 04:49:44;;;;;;;5.82;4.60;;;21.60;54.00;;;;;;5071470;28;20259;-70
2023/06/08 04:52:13;;;;;;;4.57;4.10;;;21.50;53.90;;;;;;5072433;28;20177;-68
2023/06/08 04:54:38;;;;;;;4.70;4.15;;;21.50;54.00;;;;;;5072192;28;20186;-69
2023/06/08 04:57:08;;;;;;;5.88;4.28;;;21.60;54.00;;;;;;5072442;28;20178;-69
2023/06/08 04:59:35;;;;;;;4.97;3.83;;;21.60;53.90;;;;;;5072368;28;20225;-69
2023/06/08 05:02:01;;;;;;;4.15;3.75;;;21.60;53.90;;;;;;5071679;28;20184;-70
2023/06/08 05:04:27;;;;;;;5.18;4.15;;;21.60;53.90;;;;;;5072253;28;20183;-70
2023/06/08 05:06:52;;;;;;;5.57;4.40;;;21.60;53.90;;;;;;5072459;28;20220;-70
2023/06/08 05:09:18;;;;;;;4.82;3.90;;;21.60;53.90;;;;;;5071167;28;20274;-69
2023/06/08 05:11:43;;;;;;;5.68;4.25;;;21.60;53.90;;;;;;5072249;28;20261;-69
2023/06/08 05:14:10;;;;;;;6.25;4.30;;;21.60;53.90;;;;;;5072059;28;20178;-68
2023/06/08 05:16:37;;;;;;;5.03;4.50;;;21.60;53.90;;;;;;5071618;28;20182;-68
2023/06/08 05:19:03;;;;;;;4.47;4.07;;;21.60;53.90;;;;;;5072344;28;20221;-69
2023/06/08 05:21:29;;;;;;;6.18;3.92;;;21.60;53.90;;;;;;5071820;28;20625;-68
2023/06/08 05:23:54;;;;;;;4.82;4.20;;;21.60;53.90;;;;;;5071516;28;20178;-69
2023/06/08 05:26:21;;;;;;;4.75;3.85;;;21.60;53.90;;;;;;5071685;28;20182;-68
2023/06/08 05:28:46;;;;;;;4.95;4.10;;;21.60;53.90;;;;;;5071380;28;20186;-70
2023/06/08 05:31:12;;;;;;;7.38;4.45;;;21.60;53.80;;;;;;5071885;28;20181;-72
2023/06/08 05:33:37;;;;;;;5.18;3.92;;;21.70;53.90;;;;;;5076255;28;20675;-72
2023/06/08 05:36:04;;;;;;;4.72;3.65;;;21.60;53.80;;;;;;5075366;28;20536;-69
2023/06/08 05:38:29;;;;;;;4.85;4.15;;;21.60;53.80;;;;;;5075710;28;20247;-70
2023/06/08 05:40:55;;;;;;;5.30;4.40;;;21.60;53.80;;;;;;5076007;28;20648;-69
2023/06/08 05:43:20;;;;;;;5.90;4.53;;;21.70;53.90;;;;;;5074922;28;20699;-69
2023/06/08 05:45:46;;;;;;;4.45;3.75;;;21.70;53.80;;;;;;5075659;28;20253;-70
2023/06/08 05:48:12;;;;;;;6.10;5.07;;;21.60;53.80;;;;;;5075619;28;20170;-70
2023/06/08 05:50:38;;;;;;;5.07;4.60;;;21.60;53.80;;;;;;5075205;28;20179;-69
2023/06/08 05:53:04;;;;;;;4.78;3.90;;;21.70;53.80;;;;;;5075714;28;20676;-69
2023/06/08 05:55:30;;;;;;;5.35;4.25;;;21.70;53.80;;;;;;5075295;28;20177;-69
2023/06/08 05:57:56;;;;;;;4.47;4.07;;;21.70;53.90;;;;;;5074856;28;20684;-68
2023/06/08 06:00:21;;;;;;;5.07;4.20;;;21.60;53.80;;;;;;5075106;28;20269;-69
2023/06/08 06:02:47;;;;;;;5.50;4.03;;;21.60;53.80;;;;;;5075363;28;20166;-71
2023/06/08 06:05:12;;;;;;;5.35;4.40;;;21.80;53.90;;;;;;5074424;28;20183;-70
2023/06/08 06:07:38;;;;;;;4.70;4.22;;;21.70;53.90;;;;;;5075412;28;20181;-71
2023/06/08 06:10:05;;;;;;;5.82;4.10;;;21.70;53.90;;;;;;5075545;28;20182;-68
2023/06/08 06:12:30;;;;;;;4.20;3.72;;;21.70;53.90;;;;;;5074519;28;20595;-69
2023/06/08 06:14:56;;;;;;;5.35;4.07;;;21.70;53.90;;;;;;5074966;28;20649;-68
2023/06/08 06:17:22;;;;;;;5.60;4.43;;;21.70;53.90;;;;;;5074897;28;20178;-68
2023/06/08 06:19:47;;;;;;;4.43;3.67;;;21.70;53.90;;;;;;5074355;28;20218;-68
2023/06/08 06:22:13;;;;;;;5.63;4.60;;;21.70;53.90;;;;;;5074785;28;20181;-68
2023/06/08 06:24:38;;;;;;;5.05;3.97;;;21.70;53.90;;;;;;5075279;28;20721;-68
2023/06/08 06:27:05;;;;;;;4.85;4.40;;;21.70;53.90;;;;;;5074383;28;20697;-69
2023/06/08 06:29:30;;;;;;;6.82;4.75;;;21.70;53.90;;;;;;5074876;28;20216;-68
2023/06/08 06:31:56;;;;;;;4.30;3.90;;;21.70;53.90;;;;;;5074891;28;20166;-71
2023/06/08 06:34:21;;;;;;;4.85;3.85;;;21.70;53.90;;;;;;5074488;28;20261;-71
2023/06/08 06:36:47;;;;;;;5.20;3.90;;;21.70;54.00;;;;;;5075081;28;20209;-70
2023/06/08 06:39:13;;;;;;;4.82;4.43;;;21.70;54.00;;;;;;5073877;28;20226;-69
2023/06/08 06:41:39;;;;;;;4.82;4.07;;;21.70;54.00;;;;;;5074910;28;20194;-68
2023/06/08 06:44:05;;;;;;;4.47;4.07;;;21.70;53.90;;;;;;5073852;28;20261;-69
2023/06/08 06:46:30;;;;;;;5.55;4.22;;;21.80;54.00;;;;;;5074200;28;20257;-69
2023/06/08 06:48:56;;;;;;;4.43;4.10;;;21.70;53.90;;;;;;5075101;28;20674;-70
2023/06/08 06:51:22;;;;;;;5.22;3.75;;;21.70;53.90;;;;;;5075120;28;20171;-69
2023/06/08 06:53:47;;;;;;;4.72;3.72;;;21.70;53.90;;;;;;5074290;28;20209;-68
2023/06/08 06:56:14;;;;;;;4.82;4.43;;;21.70;53.90;;;;;;5074497;28;20171;-68
2023/06/08 06:58:44;;;;;;;5.28;4.05;;;21.70;54.00;;;;;;5074602;28;20660;-70
2023/06/08 07:01:11;;;;;;;4.45;3.92;;;21.80;54.60;;;;;;5074121;28;20177;-70
2023/06/08 07:03:40;;;;;;;4.75;4.35;;;21.80;54.00;;;;;;5074872;28;20179;-71
2023/06/08 07:06:06;;;;;;;6.07;4.82;;;21.80;54.00;;;;;;5074489;28;20170;-70
2023/06/08 07:08:32;;;;;;;4.70;3.83;;;21.80;53.90;;;;;;5073802;28;20179;-69
2023/06/08 07:10:58;;;;;;;5.43;4.93;;;21.80;53.90;;;;;;5074373;28;20175;-68
2023/06/08 07:13:23;;;;;;;4.57;4.18;;;21.70;53.90;;;;;;5073544;28;20182;-67
2023/06/08 07:15:49;;;;;;;4.55;4.10;;;21.80;53.90;;;;;;5073715;28;20175;-68
2023/06/08 07:18:14;;;;;;;4.25;3.75;;;21.80;54.00;;;;;;5074042;28;20206;-68
2023/06/08 07:20:40;;;;;;;6.18;3.67;;;21.80;54.00;;;;;;5074180;28;20641;-68
2023/06/08 07:23:05;;;;;;;4.05;3.67;;;21.80;54.00;;;;;;5073577;28;20642;-68
2023/06/08 07:25:31;;;;;;;6.10;4.55;;;21.80;54.10;;;;;;5074273;28;20708;-69
2023/06/08 07:27:57;;;;;;;4.10;3.70;;;21.80;54.10;;;;;;5074278;28;20175;-68
2023/06/08 07:30:22;;;;;;;5.82;4.25;;;21.80;54.10;;;;;;5073051;28;20525;-70
2023/06/08 07:32:48;;;;;;;6.90;4.65;;;21.80;54.10;;;;;;5074020;28;20657;-72
2023/06/08 07:35:14;;;;;;;15.93;5.47;;;21.80;54.10;;;;;;5072609;28;20404;-71
2023/06/08 07:37:39;;;;;;;17.77;5.82;;;21.80;54.10;;;;;;5073496;28;20185;-70
2023/06/08 07:40:07;;;;;;;11.80;4.88;;;21.80;54.10;;;;;;5074014;28;20210;-68
2023/06/08 07:42:33;;;;;;;11.55;5.05;;;21.80;54.00;;;;;;5072982;28;20179;-68
2023/06/08 07:44:59;;;;;;;7.35;5.07;;;21.80;54.00;;;;;;5074095;28;20181;-69
2023/06/08 07:47:25;;;;;;;10.07;4.72;;;21.70;54.00;;;;;;5073649;28;20175;-70
2023/06/08 07:49:50;;;;;;;6.90;4.50;;;21.80;54.00;;;;;;5073218;28;20181;-71
2023/06/08 07:52:16;;;;;;;10.05;4.60;;;21.70;54.00;;;;;;5073413;28;20175;-68
2023/06/08 07:54:41;;;;;;;8.52;4.80;;;21.80;54.00;;;;;;5073520;28;20174;-69
2023/06/08 07:57:07;;;;;;;6.57;4.55;;;21.80;54.10;;;;;;5072581;28;20192;-71
2023/06/08 07:59:33;;;;;;;13.93;5.82;;;21.80;53.80;;;;;;5073662;28;20226;-72
2023/06/08 08:01:58;;;;;;;11.80;6.05;;;21.80;53.40;;;;;;5073386;28;20170;-71
2023/06/08 08:04:24;;;;;;;10.70;5.82;;;21.80;53.40;;;;;;5072496;28;20206;-72
2023/06/08 08:06:49;;;;;;;9.23;5.13;;;21.80;53.50;;;;;;5073449;28;20261;-70
2023/06/08 08:09:15;;;;;;;9.10;5.00;;;21.80;53.60;;;;;;5073063;28;20174;-70
2023/06/08 08:11:40;;;;;;;9.43;5.40;;;21.70;53.80;;;;;;5072579;28;20174;-70
2023/06/08 08:14:09;;;;;;;7.22;5.35;;;21.80;53.90;;;;;;5073321;28;20538;-68
2023/06/08 08:16:36;;;;;;;8.93;5.50;;;21.70;54.00;;;;;;5073389;28;20181;-70
2023/06/08 08:19:02;;;;;;;7.95;4.63;;;21.80;54.20;;;;;;5072736;28;20210;-68
2023/06/08 08:21:27;;;;;;;9.75;4.68;;;21.70;54.20;;;;;;5073095;28;20166;-68
2023/06/08 08:23:53;;;;;;;6.38;4.68;;;21.70;54.30;;;;;;5073281;28;20265;-68
2023/06/08 08:26:18;;;;;;;5.85;4.40;;;21.70;54.30;;;;;;5071980;28;20269;-69
2023/06/08 08:28:44;;;;;;;7.20;4.60;;;21.70;54.30;;;;;;5073344;28;20174;-71
2023/06/08 08:31:11;;;;;;;5.47;4.65;;;21.70;54.50;;;;;;5073144;28;20174;-72
2023/06/08 08:33:36;;;;;;;5.70;4.32;;;21.80;54.60;;;;;;5072460;28;20178;-72
2023/06/08 08:36:02;;;;;;;6.03;4.43;;;21.70;54.60;;;;;;5073161;28;20401;-70
2023/06/08 08:38:28;;;;;;;10.20;5.05;;;21.70;54.60;;;;;;5072397;28;20238;-71
2023/06/08 08:40:53;;;;;;;8.77;4.82;;;21.80;54.70;;;;;;5072256;28;20189;-70
2023/06/08 08:43:23;;;;;;;6.85;4.55;;;21.70;54.70;;;;;;5055022;28;20167;-71
2023/06/08 08:45:50;;;;;;;9.13;4.85;;;21.70;55.40;;;;;;5071175;28;20179;-70
2023/06/08 08:48:15;;;;;;;8.25;5.03;;;21.70;54.90;;;;;;5055393;28;20307;-71
2023/06/08 08:50:41;;;;;;;6.05;5.03;;;21.70;54.80;;;;;;5055123;28;20633;-70
2023/06/08 08:53:09;;;;;;;7.88;4.30;;;21.70;54.80;;;;;;5072008;28;20625;-69
2023/06/08 08:55:36;;;;;;;7.18;4.30;;;21.70;54.80;;;;;;5072541;28;20239;-70
2023/06/08 08:58:02;;;;;;;6.90;4.28;;;21.80;55.00;;;;;;5072631;28;20708;-68
2023/06/08 09:00:28;;;;;;;5.43;4.00;;;21.70;54.90;;;;;;5071679;28;20269;-72
2023/06/08 09:02:54;;;;;;;5.57;4.50;;;21.80;54.90;;;;;;5072827;28;20171;-71
2023/06/08 09:05:19;;;;;;;7.30;4.53;;;21.80;54.80;;;;;;5072332;28;20698;-71
2023/06/08 09:07:45;;;;;;;7.30;4.28;;;21.80;54.80;;;;;;5077585;28;20617;-71
2023/06/08 09:10:22;;;;;;;5.30;3.92;;;21.90;54.70;;;;;;5079002;28;20292;-68
2023/06/08 09:12:48;;;;;;;5.72;4.13;;;22.00;54.40;;;;;;5079282;28;20533;-69
2023/06/08 09:15:23;;;;;;;8.75;4.10;;;22.10;54.40;;;;;;5078254;28;20178;-69
2023/06/08 09:17:51;;;;;;;5.03;4.53;;;22.10;54.30;;;;;;5079210;28;20640;-70
2023/06/08 09:20:16;;;;;;;5.38;3.63;;;22.00;54.20;;;;;;5078802;28;20218;-69
2023/06/08 09:22:43;;;;;;;5.97;3.95;;;22.10;54.30;;;;;;5060361;28;20780;-68
2023/06/08 09:25:09;;;;;;;4.63;3.90;;;22.10;54.30;;;;;;5079191;28;20183;-68
2023/06/08 09:27:35;;;;;;;5.32;4.43;;;22.10;54.20;;;;;;5079187;28;20181;-69
2023/06/08 09:30:01;;;;;;;5.28;3.85;;;22.10;54.20;;;;;;5078490;28;20170;-69
2023/06/08 09:32:31;;;;;;;3.97;3.67;;;22.10;54.20;;;;;;5078839;28;20239;-73
2023/06/08 09:35:01;;;;;;;4.82;4.32;;;22.10;54.30;;;;;;5078610;28;20529;-72
2023/06/08 09:37:29;;;;;;;5.05;4.10;;;22.20;54.30;;;;;;5078622;28;20652;-70
2023/06/08 09:39:55;;;;;;;5.22;4.15;;;22.20;54.30;;;;;;5079454;28;20300;-69
2023/06/08 09:42:20;;;;;;;6.57;4.10;;;22.30;54.30;;;;;;5078056;28;20250;-71
2023/06/08 09:44:46;;;;;;;5.63;4.15;;;22.30;54.20;;;;;;5079081;28;20224;-70
2023/06/08 09:47:22;;;;;;;4.82;4.10;;;22.30;54.30;;;;;;5078738;28;20170;-71
2023/06/08 09:49:49;;;;;;;7.63;4.18;;;22.30;54.20;;;;;;5078166;28;20182;-71
2023/06/08 09:52:15;;;;;;;5.82;4.25;;;22.30;54.20;;;;;;5078761;28;20181;-69
2023/06/08 09:54:42;;;;;;;6.20;4.45;;;22.30;54.20;;;;;;5077836;28;20178;-69
2023/06/08 09:57:07;;;;;;;4.55;3.88;;;22.30;54.20;;;;;;5060133;28;20178;-69
2023/06/08 09:59:37;;;;;;;6.07;4.30;;;22.40;54.20;;;;;;5077476;28;20206;-71
2023/06/08 10:02:34;;;;;;;4.53;4.13;;;22.30;54.10;;;;;;5061071;28;20573;-72
2023/06/08 10:05:01;;;;;;;5.55;3.83;;;22.40;54.20;;;;;;5075098;28;20646;-71
2023/06/08 10:07:29;;;;;;;4.60;4.13;;;22.30;54.10;;;;;;5060984;28;20202;-72
2023/06/08 10:10:08;;;;;;;5.55;3.97;;;22.40;54.20;;;;;;5077593;28;20178;-68
2023/06/08 10:12:33;;;;;;;4.57;3.80;;;22.40;54.20;;;;;;5077503;28;20637;-70
2023/06/08 10:14:59;;;;;;;3.70;3.40;;;22.50;54.20;;;;;;5078960;28;20181;-68
2023/06/08 10:17:25;;;;;;;6.25;3.80;;;22.40;54.30;;;;;;5077195;28;20178;-70
2023/06/08 10:19:51;;;;;;;5.15;3.95;;;22.40;54.40;;;;;;5075574;28;20211;-68
2023/06/08 10:22:17;;;;;;;4.25;3.85;;;22.40;54.40;;;;;;5075252;28;20173;-70
2023/06/08 10:24:48;;;;;;;4.00;3.70;;;22.30;54.30;;;;;;5074831;28;20265;-69
2023/06/08 10:27:22;;;;;;;4.32;3.97;;;22.40;54.40;;;;;;5073933;28;20270;-69
2023/06/08 10:30:01;;;;;;;5.03;3.80;;;22.40;54.40;;;;;;5075322;28;20649;-71
2023/06/08 10:32:33;;;;;;;4.75;4.25;;;22.50;54.40;;;;;;5074501;28;20211;-74
2023/06/08 10:34:59;;;;;;;5.20;3.78;;;22.50;54.30;;;;;;5075213;28;20240;-69
2023/06/08 10:37:26;;;;;;;4.03;3.70;;;22.50;54.20;;;;;;5074615;28;20181;-68
2023/06/08 10:39:52;;;;;;;4.38;3.95;;;22.60;54.20;;;;;;5074677;28;20233;-67
2023/06/08 10:42:20;;;;;;;4.55;3.83;;;22.60;54.20;;;;;;5074802;28;20637;-67
2023/06/08 10:44:59;;;;;;;5.00;4.50;;;22.60;54.20;;;;;;5075091;28;20178;-69
2023/06/08 10:47:25;;;;;;;4.70;3.80;;;22.60;54.20;;;;;;5074182;28;20273;-69
2023/06/08 10:50:01;;;;;;;4.25;3.90;;;22.70;54.20;;;;;;5074907;28;20250;-71
2023/06/08 10:52:27;;;;;;;6.68;4.22;;;22.70;54.20;;;;;;5074188;28;20181;-70
2023/06/08 10:55:08;;;;;;;6.63;4.00;;;22.70;54.20;;;;;;5075049;28;20641;-68
2023/06/08 10:57:43;;;;;;;5.38;3.80;;;22.70;54.30;;;;;;5073556;28;20673;-68
2023/06/08 11:00:28;;;;;;;5.80;4.10;;;22.80;54.30;;;;;;5073894;28;20245;-68
2023/06/08 11:02:59;;;;;;;6.30;4.30;;;22.80;54.20;;;;;;5074936;28;20174;-69
2023/06/08 11:05:28;;;;;;;4.75;4.20;;;22.80;54.20;;;;;;5074565;28;20178;-70
2023/06/08 11:07:54;;;;;;;5.43;4.00;;;22.90;54.10;;;;;;5074018;28;20261;-67
2023/06/08 11:10:20;;;;;;;9.45;4.22;;;22.90;54.20;;;;;;5074399;28;20265;-67
2023/06/08 11:12:46;;;;;;;6.90;3.85;;;22.90;54.10;;;;;;5074500;28;20174;-67
2023/06/08 11:15:11;;;;;;;5.20;3.55;;;22.90;54.10;;;;;;5073418;28;20200;-67
2023/06/08 11:17:52;;;;;;;5.93;4.10;;;22.90;54.10;;;;;;5074604;28;20167;-68
2023/06/08 11:20:26;;;;;;;6.38;3.75;;;23.00;54.20;;;;;;5073632;28;20214;-67
2023/06/08 11:22:52;;;;;;;5.65;4.40;;;23.00;54.20;;;;;;5074342;28;20167;-67
2023/06/08 11:25:19;;;;;;;5.53;4.05;;;23.00;54.30;;;;;;5073888;28;20231;-67
2023/06/08 11:27:44;;;;;;;10.32;3.88;;;23.00;54.20;;;;;;5073446;28;20182;-67
2023/06/08 11:30:16;;;;;;;4.45;4.05;;;23.00;54.20;;;;;;5073462;28;20193;-73
2023/06/08 11:32:44;;;;;;;7.55;4.38;;;23.10;54.20;;;;;;5074280;28;20175;-73
2023/06/08 11:35:10;;;;;;;5.55;4.00;;;23.00;54.20;;;;;;5073153;28;20659;-73
2023/06/08 11:37:36;;;;;;;5.35;3.88;;;23.00;54.30;;;;;;5073867;28;20250;-72
2023/06/08 11:40:02;;;;;;;5.93;3.75;;;23.00;54.30;;;;;;5072594;28;20293;-69
2023/06/08 11:42:27;;;;;;;5.78;4.00;;;23.00;54.30;;;;;;5055140;28;20250;-72
2023/06/08 11:44:54;;;;;;;5.55;4.30;;;23.10;54.40;;;;;;5074051;28;20227;-73
2023/06/08 11:47:20;;;;;;;7.75;3.80;;;23.10;54.40;;;;;;5073967;28;20251;-73
2023/06/08 11:49:57;;;;;;;4.28;3.88;;;23.10;54.40;;;;;;5070743;28;20175;-72
2023/06/08 11:52:26;;;;;;;6.80;4.05;;;23.10;54.50;;;;;;5073427;28;20174;-71
2023/06/08 11:55:01;;;;;;;6.68;3.53;;;23.20;54.50;;;;;;5073865;28;20179;-71
2023/06/08 11:57:41;;;;;;;7.43;4.20;;;23.20;54.50;;;;;;5072829;28;20170;-72
2023/06/08 12:00:13;;;;;;;4.47;4.07;;;23.20;54.40;;;;;;5073354;28;20213;-72
2023/06/08 12:02:39;;;;;;;3.97;3.60;;;23.20;54.40;;;;;;5072951;28;20178;-75
2023/06/08 12:05:05;;;;;;;5.03;4.07;;;23.20;54.30;;;;;;5073395;28;20178;-71
2023/06/08 12:07:33;;;;;;;4.90;3.65;;;23.30;54.30;;;;;;5073327;28;20167;-74
2023/06/08 12:09:59;;;;;;;3.67;3.38;;;23.30;54.30;;;;;;5071452;28;20171;-72
2023/06/08 12:12:28;;;;;;;6.15;3.85;;;23.30;54.20;;;;;;5073158;28;20625;-72
2023/06/08 12:14:54;;;;;;;5.20;3.72;;;23.40;54.20;;;;;;5073432;28;20566;-72
2023/06/08 12:17:27;;;;;;;4.82;3.75;;;23.30;54.10;;;;;;5072037;28;20197;-71
2023/06/08 12:19:53;;;;;;;6.18;3.80;;;23.30;54.00;;;;;;5072044;28;20346;-70
2023/06/08 12:22:19;;;;;;;6.40;4.13;;;23.40;54.00;;;;;;5072419;28;20253;-72
2023/06/08 12:24:45;;;;;;;4.18;3.78;;;23.40;54.00;;;;;;5072450;28;20177;-69
2023/06/08 12:27:10;;;;;;;4.50;3.65;;;23.40;54.60;;;;;;5072477;28;20166;-72
2023/06/08 12:29:39;;;;;;;4.10;3.30;;;23.30;53.90;;;;;;5072712;28;20193;-73
2023/06/08 12:32:05;;;;;;;4.88;3.55;;;23.40;53.80;;;;;;5071735;28;20194;-70
2023/06/08 12:34:31;;;;;;;9.13;3.55;;;23.50;53.90;;;;;;5072464;28;20186;-73
2023/06/08 12:36:57;;;;;;;6.35;4.22;;;23.50;53.90;;;;;;5072457;28;20182;-72
2023/06/08 12:39:23;;;;;;;9.10;4.03;;;23.50;53.80;;;;;;5071109;28;20322;-72
2023/06/08 12:41:48;;;;;;;4.72;4.00;;;23.50;53.70;;;;;;5071593;28;20255;-71
2023/06/08 12:44:14;;;;;;;4.88;3.40;;;23.60;53.60;;;;;;5072081;28;20170;-74